sensor_id;sensor_type;location;lat;lon;timestamp;temperature;humidity
79049;DHT22;68680;50.764;6.120;2023-04-19T00:02:01;10.40;78.10
79049;DHT22;68680;50.764;6.120;2023-04-19T00:04:26;10.40;78.00
79049;DHT22;68680;50.764;6.120;2023-04-19T00:06:52;10.40;77.80
79049;DHT22;68680;50.764;6.120;2023-04-19T00:09:19;10.40;77.80
79049;DHT22;68680;50.764;6.120;2023-04-19T00:11:45;10.50;77.90
79049;DHT22;68680;50.764;6.120;2023-04-19T00:14:10;10.50;77.10
79049;DHT22;68680;50.764;6.120;2023-04-19T00:16:36;10.50;76.70
79049;DHT22;68680;50.764;6.120;2023-04-19T00:19:01;10.50;76.80
79049;DHT22;68680;50.764;6.120;2023-04-19T00:21:27;10.60;76.40
79049;DHT22;68680;50.764;6.120;2023-04-19T00:23:53;10.60;76.40
79049;DHT22;68680;50.764;6.120;2023-04-19T00:26:20;10.50;76.50
79049;DHT22;68680;50.764;6.120;2023-04-19T00:28:45;10.60;76.40
79049;DHT22;68680;50.764;6.120;2023-04-19T00:31:11;10.60;76.20
79049;DHT22;68680;50.764;6.120;2023-04-19T00:33:36;10.60;75.80
79049;DHT22;68680;50.764;6.120;2023-04-19T00:36:02;10.60;76.30
79049;DHT22;68680;50.764;6.120;2023-04-19T00:38:28;10.60;76.40
79049;DHT22;68680;50.764;6.120;2023-04-19T00:40:54;10.60;76.20
79049;DHT22;68680;50.764;6.120;2023-04-19T00:43:20;10.60;76.70
79049;DHT22;68680;50.764;6.120;2023-04-19T00:45:46;10.50;76.50
79049;DHT22;68680;50.764;6.120;2023-04-19T00:48:12;10.50;76.70
79049;DHT22;68680;50.764;6.120;2023-04-19T00:50:38;10.50;76.10
79049;DHT22;68680;50.764;6.120;2023-04-19T00:53:05;10.60;76.30
79049;DHT22;68680;50.764;6.120;2023-04-19T00:55:31;10.50;76.10
79049;DHT22;68680;50.764;6.120;2023-04-19T00:57:57;10.50;76.40
79049;DHT22;68680;50.764;6.120;2023-04-19T01:00:25;10.50;76.50
79049;DHT22;68680;50.764;6.120;2023-04-19T01:02:51;10.50;76.70
79049;DHT22;68680;50.764;6.120;2023-04-19T01:05:16;10.50;76.30
79049;DHT22;68680;50.764;6.120;2023-04-19T01:07:42;10.50;76.20
79049;DHT22;68680;50.764;6.120;2023-04-19T01:10:08;10.50;76.40
79049;DHT22;68680;50.764;6.120;2023-04-19T01:12:34;10.50;76.20
79049;DHT22;68680;50.764;6.120;2023-04-19T01:15:00;10.50;76.30
79049;DHT22;68680;50.764;6.120;2023-04-19T01:17:27;10.50;76.10
79049;DHT22;68680;50.764;6.120;2023-04-19T01:19:57;10.50;76.20
79049;DHT22;68680;50.764;6.120;2023-04-19T01:22:25;10.50;76.60
79049;DHT22;68680;50.764;6.120;2023-04-19T01:24:50;10.40;76.20
79049;DHT22;68680;50.764;6.120;2023-04-19T01:27:16;10.40;76.60
79049;DHT22;68680;50.764;6.120;2023-04-19T01:29:42;10.40;76.60
79049;DHT22;68680;50.764;6.120;2023-04-19T01:32:07;10.40;76.10
79049;DHT22;68680;50.764;6.120;2023-04-19T01:34:33;10.50;76.40
79049;DHT22;68680;50.764;6.120;2023-04-19T01:36:59;10.50;76.10
79049;DHT22;68680;50.764;6.120;2023-04-19T01:39:26;10.50;76.00
79049;DHT22;68680;50.764;6.120;2023-04-19T01:41:51;10.50;75.90
79049;DHT22;68680;50.764;6.120;2023-04-19T01:44:17;10.50;75.80
79049;DHT22;68680;50.764;6.120;2023-04-19T01:46:42;10.50;76.10
79049;DHT22;68680;50.764;6.120;2023-04-19T01:49:08;10.50;76.10
79049;DHT22;68680;50.764;6.120;2023-04-19T01:51:34;10.50;75.80
79049;DHT22;68680;50.764;6.120;2023-04-19T01:54:00;10.50;76.40
79049;DHT22;68680;50.764;6.120;2023-04-19T01:56:27;10.50;76.40
79049;DHT22;68680;50.764;6.120;2023-04-19T01:58:53;10.50;76.10
79049;DHT22;68680;50.764;6.120;2023-04-19T02:01:19;10.40;76.80
79049;DHT22;68680;50.764;6.120;2023-04-19T02:03:44;10.40;76.90
79049;DHT22;68680;50.764;6.120;2023-04-19T02:06:10;10.40;77.30
79049;DHT22;68680;50.764;6.120;2023-04-19T02:08:36;10.30;77.60
79049;DHT22;68680;50.764;6.120;2023-04-19T02:11:04;10.30;77.70
79049;DHT22;68680;50.764;6.120;2023-04-19T02:13:32;10.20;78.30
79049;DHT22;68680;50.764;6.120;2023-04-19T02:15:58;10.10;78.30
79049;DHT22;68680;50.764;6.120;2023-04-19T02:18:23;10.10;78.60
79049;DHT22;68680;50.764;6.120;2023-04-19T02:20:49;10.00;79.30
79049;DHT22;68680;50.764;6.120;2023-04-19T02:23:16;10.00;79.40
79049;DHT22;68680;50.764;6.120;2023-04-19T02:25:41;9.90;79.60
79049;DHT22;68680;50.764;6.120;2023-04-19T02:28:07;9.90;80.20
79049;DHT22;68680;50.764;6.120;2023-04-19T02:30:34;9.80;80.70
79049;DHT22;68680;50.764;6.120;2023-04-19T02:33:01;9.70;80.90
79049;DHT22;68680;50.764;6.120;2023-04-19T02:35:26;9.60;81.50
79049;DHT22;68680;50.764;6.120;2023-04-19T02:37:52;9.60;81.90
79049;DHT22;68680;50.764;6.120;2023-04-19T02:40:17;9.60;81.70
79049;DHT22;68680;50.764;6.120;2023-04-19T02:42:43;9.50;82.10
79049;DHT22;68680;50.764;6.120;2023-04-19T02:45:09;9.50;82.50
79049;DHT22;68680;50.764;6.120;2023-04-19T02:47:36;9.50;82.50
79049;DHT22;68680;50.764;6.120;2023-04-19T02:50:01;9.40;83.00
79049;DHT22;68680;50.764;6.120;2023-04-19T02:52:27;9.30;83.50
79049;DHT22;68680;50.764;6.120;2023-04-19T02:54:53;9.30;83.50
79049;DHT22;68680;50.764;6.120;2023-04-19T02:57:18;9.20;83.40
79049;DHT22;68680;50.764;6.120;2023-04-19T02:59:44;9.20;83.60
79049;DHT22;68680;50.764;6.120;2023-04-19T03:02:09;9.20;84.00
79049;DHT22;68680;50.764;6.120;2023-04-19T03:04:36;9.20;84.20
79049;DHT22;68680;50.764;6.120;2023-04-19T03:07:02;9.10;84.20
79049;DHT22;68680;50.764;6.120;2023-04-19T03:09:28;9.20;84.10
79049;DHT22;68680;50.764;6.120;2023-04-19T03:11:53;9.10;84.40
79049;DHT22;68680;50.764;6.120;2023-04-19T03:14:19;9.20;84.70
79049;DHT22;68680;50.764;6.120;2023-04-19T03:16:44;9.10;84.70
79049;DHT22;68680;50.764;6.120;2023-04-19T03:19:10;9.20;84.60
79049;DHT22;68680;50.764;6.120;2023-04-19T03:21:37;9.20;84.90
79049;DHT22;68680;50.764;6.120;2023-04-19T03:24:03;9.20;84.60
79049;DHT22;68680;50.764;6.120;2023-04-19T03:26:28;9.30;84.50
79049;DHT22;68680;50.764;6.120;2023-04-19T03:28:54;9.30;84.50
79049;DHT22;68680;50.764;6.120;2023-04-19T03:31:20;9.30;84.60
79049;DHT22;68680;50.764;6.120;2023-04-19T03:33:45;9.30;84.30
79049;DHT22;68680;50.764;6.120;2023-04-19T03:36:11;9.30;83.90
79049;DHT22;68680;50.764;6.120;2023-04-19T03:38:38;9.30;84.70
79049;DHT22;68680;50.764;6.120;2023-04-19T03:41:03;9.30;85.00
79049;DHT22;68680;50.764;6.120;2023-04-19T03:43:29;9.30;84.30
79049;DHT22;68680;50.764;6.120;2023-04-19T03:45:55;9.30;84.40
79049;DHT22;68680;50.764;6.120;2023-04-19T03:48:20;9.30;84.10
79049;DHT22;68680;50.764;6.120;2023-04-19T03:50:46;9.30;83.90
79049;DHT22;68680;50.764;6.120;2023-04-19T03:53:11;9.40;84.50
79049;DHT22;68680;50.764;6.120;2023-04-19T03:55:38;9.40;84.40
79049;DHT22;68680;50.764;6.120;2023-04-19T03:58:04;9.40;84.00
79049;DHT22;68680;50.764;6.120;2023-04-19T04:00:30;9.40;84.30
79049;DHT22;68680;50.764;6.120;2023-04-19T04:02:55;9.40;84.70
79049;DHT22;68680;50.764;6.120;2023-04-19T04:05:21;9.40;84.50
79049;DHT22;68680;50.764;6.120;2023-04-19T04:07:47;9.40;84.60
79049;DHT22;68680;50.764;6.120;2023-04-19T04:10:12;9.40;84.40
79049;DHT22;68680;50.764;6.120;2023-04-19T04:12:39;9.40;84.70
79049;DHT22;68680;50.764;6.120;2023-04-19T04:15:05;9.50;85.10
79049;DHT22;68680;50.764;6.120;2023-04-19T04:17:31;9.50;84.50
79049;DHT22;68680;50.764;6.120;2023-04-19T04:19:57;9.40;84.40
79049;DHT22;68680;50.764;6.120;2023-04-19T04:22:23;9.50;84.60
79049;DHT22;68680;50.764;6.120;2023-04-19T04:24:48;9.50;84.40
79049;DHT22;68680;50.764;6.120;2023-04-19T04:27:14;9.50;84.30
79049;DHT22;68680;50.764;6.120;2023-04-19T04:29:41;9.50;84.50
79049;DHT22;68680;50.764;6.120;2023-04-19T04:32:07;9.50;84.60
79049;DHT22;68680;50.764;6.120;2023-04-19T04:34:33;9.50;84.50
79049;DHT22;68680;50.764;6.120;2023-04-19T04:36:58;9.50;84.80
79049;DHT22;68680;50.764;6.120;2023-04-19T04:39:24;9.50;84.80
79049;DHT22;68680;50.764;6.120;2023-04-19T04:41:50;9.50;84.50
79049;DHT22;68680;50.764;6.120;2023-04-19T04:44:16;9.50;84.80
79049;DHT22;68680;50.764;6.120;2023-04-19T04:46:43;9.50;85.10
79049;DHT22;68680;50.764;6.120;2023-04-19T04:49:09;9.50;84.90
79049;DHT22;68680;50.764;6.120;2023-04-19T04:51:34;9.50;85.40
79049;DHT22;68680;50.764;6.120;2023-04-19T04:54:00;9.50;85.30
79049;DHT22;68680;50.764;6.120;2023-04-19T04:56:25;9.50;84.80
79049;DHT22;68680;50.764;6.120;2023-04-19T04:58:51;9.50;85.10
79049;DHT22;68680;50.764;6.120;2023-04-19T05:01:17;9.50;85.00
79049;DHT22;68680;50.764;6.120;2023-04-19T05:03:43;9.50;85.40
79049;DHT22;68680;50.764;6.120;2023-04-19T05:06:09;9.50;85.20
79049;DHT22;68680;50.764;6.120;2023-04-19T05:08:35;9.50;85.30
79049;DHT22;68680;50.764;6.120;2023-04-19T05:11:00;9.50;85.60
79049;DHT22;68680;50.764;6.120;2023-04-19T05:13:26;9.50;85.80
79049;DHT22;68680;50.764;6.120;2023-04-19T05:15:52;9.60;85.80
79049;DHT22;68680;50.764;6.120;2023-04-19T05:18:17;9.60;85.60
79049;DHT22;68680;50.764;6.120;2023-04-19T05:20:44;9.60;85.80
79049;DHT22;68680;50.764;6.120;2023-04-19T05:23:10;9.60;85.60
79049;DHT22;68680;50.764;6.120;2023-04-19T05:25:35;9.60;86.10
79049;DHT22;68680;50.764;6.120;2023-04-19T05:28:01;9.60;86.20
79049;DHT22;68680;50.764;6.120;2023-04-19T05:30:27;9.60;86.10
79049;DHT22;68680;50.764;6.120;2023-04-19T05:32:53;9.60;86.30
79049;DHT22;68680;50.764;6.120;2023-04-19T05:35:19;9.70;86.30
79049;DHT22;68680;50.764;6.120;2023-04-19T05:37:46;9.70;86.00
79049;DHT22;68680;50.764;6.120;2023-04-19T05:40:11;9.70;86.10
79049;DHT22;68680;50.764;6.120;2023-04-19T05:42:37;9.70;86.40
79049;DHT22;68680;50.764;6.120;2023-04-19T05:45:03;9.70;86.50
79049;DHT22;68680;50.764;6.120;2023-04-19T05:47:29;9.70;86.20
79049;DHT22;68680;50.764;6.120;2023-04-19T05:49:54;9.70;86.20
79049;DHT22;68680;50.764;6.120;2023-04-19T05:52:20;9.80;86.40
79049;DHT22;68680;50.764;6.120;2023-04-19T05:54:47;9.80;86.00
79049;DHT22;68680;50.764;6.120;2023-04-19T05:57:12;9.90;86.20
79049;DHT22;68680;50.764;6.120;2023-04-19T05:59:38;9.90;85.90
79049;DHT22;68680;50.764;6.120;2023-04-19T06:02:04;9.90;86.00
79049;DHT22;68680;50.764;6.120;2023-04-19T06:04:29;10.00;85.40
79049;DHT22;68680;50.764;6.120;2023-04-19T06:06:55;10.00;85.20
79049;DHT22;68680;50.764;6.120;2023-04-19T06:09:20;10.10;84.90
79049;DHT22;68680;50.764;6.120;2023-04-19T06:11:47;10.10;85.20
79049;DHT22;68680;50.764;6.120;2023-04-19T06:14:13;10.10;84.90
79049;DHT22;68680;50.764;6.120;2023-04-19T06:16:39;10.20;84.60
79049;DHT22;68680;50.764;6.120;2023-04-19T06:19:04;10.20;84.10
79049;DHT22;68680;50.764;6.120;2023-04-19T06:21:30;10.30;84.10
79049;DHT22;68680;50.764;6.120;2023-04-19T06:23:56;10.30;84.00
79049;DHT22;68680;50.764;6.120;2023-04-19T06:26:21;10.30;84.00
79049;DHT22;68680;50.764;6.120;2023-04-19T06:28:48;10.40;83.90
79049;DHT22;68680;50.764;6.120;2023-04-19T06:31:14;10.40;83.10
79049;DHT22;68680;50.764;6.120;2023-04-19T06:33:39;10.50;83.30
79049;DHT22;68680;50.764;6.120;2023-04-19T06:36:05;10.50;84.10
79049;DHT22;68680;50.764;6.120;2023-04-19T06:38:31;10.50;83.50
79049;DHT22;68680;50.764;6.120;2023-04-19T06:40:57;10.50;82.00
79049;DHT22;68680;50.764;6.120;2023-04-19T06:43:22;10.50;82.40
79049;DHT22;68680;50.764;6.120;2023-04-19T06:45:56;10.60;82.60
79049;DHT22;68680;50.764;6.120;2023-04-19T06:48:22;10.50;82.20
79049;DHT22;68680;50.764;6.120;2023-04-19T06:50:47;10.50;81.90
79049;DHT22;68680;50.764;6.120;2023-04-19T06:53:13;10.60;81.90
79049;DHT22;68680;50.764;6.120;2023-04-19T06:55:39;10.60;82.40
79049;DHT22;68680;50.764;6.120;2023-04-19T06:58:04;10.60;82.00
79049;DHT22;68680;50.764;6.120;2023-04-19T07:00:30;10.70;81.90
79049;DHT22;68680;50.764;6.120;2023-04-19T07:02:57;10.70;81.40
79049;DHT22;68680;50.764;6.120;2023-04-19T07:05:22;10.70;81.30
79049;DHT22;68680;50.764;6.120;2023-04-19T07:07:48;10.80;81.50
79049;DHT22;68680;50.764;6.120;2023-04-19T07:10:13;10.90;81.20
79049;DHT22;68680;50.764;6.120;2023-04-19T07:12:39;10.90;80.70
79049;DHT22;68680;50.764;6.120;2023-04-19T07:15:05;11.00;80.30
79049;DHT22;68680;50.764;6.120;2023-04-19T07:17:32;11.00;80.20
79049;DHT22;68680;50.764;6.120;2023-04-19T07:20:00;11.10;80.40
79049;DHT22;68680;50.764;6.120;2023-04-19T07:22:25;11.20;79.80
79049;DHT22;68680;50.764;6.120;2023-04-19T07:24:51;11.30;80.10
79049;DHT22;68680;50.764;6.120;2023-04-19T07:27:18;11.30;79.70
79049;DHT22;68680;50.764;6.120;2023-04-19T07:29:43;11.30;79.20
79049;DHT22;68680;50.764;6.120;2023-04-19T07:32:09;11.30;78.90
79049;DHT22;68680;50.764;6.120;2023-04-19T07:34:35;11.30;79.00
79049;DHT22;68680;50.764;6.120;2023-04-19T07:37:03;11.40;80.30
79049;DHT22;68680;50.764;6.120;2023-04-19T07:39:28;11.50;78.70
79049;DHT22;68680;50.764;6.120;2023-04-19T07:41:54;11.50;78.40
79049;DHT22;68680;50.764;6.120;2023-04-19T07:44:20;11.60;78.10
79049;DHT22;68680;50.764;6.120;2023-04-19T07:46:45;11.70;77.70
79049;DHT22;68680;50.764;6.120;2023-04-19T07:49:11;11.70;77.20
79049;DHT22;68680;50.764;6.120;2023-04-19T07:51:37;11.70;77.50
79049;DHT22;68680;50.764;6.120;2023-04-19T07:54:04;11.70;77.80
79049;DHT22;68680;50.764;6.120;2023-04-19T07:56:30;11.70;76.40
79049;DHT22;68680;50.764;6.120;2023-04-19T07:58:56;11.80;75.30
79049;DHT22;68680;50.764;6.120;2023-04-19T08:01:21;11.80;74.60
79049;DHT22;68680;50.764;6.120;2023-04-19T08:03:47;11.70;73.90
79049;DHT22;68680;50.764;6.120;2023-04-19T08:06:12;11.60;75.30
79049;DHT22;68680;50.764;6.120;2023-04-19T08:08:38;11.50;75.10
79049;DHT22;68680;50.764;6.120;2023-04-19T08:11:05;11.50;74.50
79049;DHT22;68680;50.764;6.120;2023-04-19T08:13:31;11.50;74.60
79049;DHT22;68680;50.764;6.120;2023-04-19T08:15:56;11.40;74.80
79049;DHT22;68680;50.764;6.120;2023-04-19T08:18:22;11.40;73.70
79049;DHT22;68680;50.764;6.120;2023-04-19T08:20:48;11.40;75.30
79049;DHT22;68680;50.764;6.120;2023-04-19T08:23:14;11.40;74.00
79049;DHT22;68680;50.764;6.120;2023-04-19T08:25:39;11.30;74.60
79049;DHT22;68680;50.764;6.120;2023-04-19T08:28:06;11.30;74.00
79049;DHT22;68680;50.764;6.120;2023-04-19T08:30:32;11.30;74.20
79049;DHT22;68680;50.764;6.120;2023-04-19T08:32:58;11.40;73.60
79049;DHT22;68680;50.764;6.120;2023-04-19T08:35:23;11.50;73.20
79049;DHT22;68680;50.764;6.120;2023-04-19T08:37:49;11.60;72.60
79049;DHT22;68680;50.764;6.120;2023-04-19T08:40:15;11.80;71.80
79049;DHT22;68680;50.764;6.120;2023-04-19T08:42:41;11.90;71.50
79049;DHT22;68680;50.764;6.120;2023-04-19T08:45:08;12.00;70.20
79049;DHT22;68680;50.764;6.120;2023-04-19T08:47:34;12.10;70.50
79049;DHT22;68680;50.764;6.120;2023-04-19T08:50:00;12.10;70.50
79049;DHT22;68680;50.764;6.120;2023-04-19T08:52:27;12.10;70.00
79049;DHT22;68680;50.764;6.120;2023-04-19T08:54:54;12.20;68.60
79049;DHT22;68680;50.764;6.120;2023-04-19T08:57:20;12.20;68.80
79049;DHT22;68680;50.764;6.120;2023-04-19T08:59:46;12.30;69.70
79049;DHT22;68680;50.764;6.120;2023-04-19T09:02:13;12.40;68.20
79049;DHT22;68680;50.764;6.120;2023-04-19T09:04:38;12.40;68.90
79049;DHT22;68680;50.764;6.120;2023-04-19T09:07:04;12.40;67.70
79049;DHT22;68680;50.764;6.120;2023-04-19T09:09:30;12.40;68.40
79049;DHT22;68680;50.764;6.120;2023-04-19T09:11:55;12.40;66.90
79049;DHT22;68680;50.764;6.120;2023-04-19T09:14:21;12.20;67.00
79049;DHT22;68680;50.764;6.120;2023-04-19T09:16:47;12.30;68.40
79049;DHT22;68680;50.764;6.120;2023-04-19T09:19:14;12.30;67.20
79049;DHT22;68680;50.764;6.120;2023-04-19T09:21:40;12.40;67.20
79049;DHT22;68680;50.764;6.120;2023-04-19T09:24:05;12.50;66.10
79049;DHT22;68680;50.764;6.120;2023-04-19T09:26:32;12.70;65.60
79049;DHT22;68680;50.764;6.120;2023-04-19T09:28:58;12.80;65.40
79049;DHT22;68680;50.764;6.120;2023-04-19T09:31:25;12.80;63.90
79049;DHT22;68680;50.764;6.120;2023-04-19T09:33:52;12.90;65.00
79049;DHT22;68680;50.764;6.120;2023-04-19T09:36:26;12.90;64.80
79049;DHT22;68680;50.764;6.120;2023-04-19T09:38:52;13.00;64.30
79049;DHT22;68680;50.764;6.120;2023-04-19T09:41:18;13.20;64.60
79049;DHT22;68680;50.764;6.120;2023-04-19T09:43:44;13.20;62.30
79049;DHT22;68680;50.764;6.120;2023-04-19T09:46:22;13.30;62.80
79049;DHT22;68680;50.764;6.120;2023-04-19T09:48:54;13.30;61.60
79049;DHT22;68680;50.764;6.120;2023-04-19T09:51:21;13.10;61.90
79049;DHT22;68680;50.764;6.120;2023-04-19T09:53:48;13.00;61.80
79049;DHT22;68680;50.764;6.120;2023-04-19T09:56:14;13.00;63.30
79049;DHT22;68680;50.764;6.120;2023-04-19T09:58:40;13.00;61.90
79049;DHT22;68680;50.764;6.120;2023-04-19T10:01:08;13.10;62.30
79049;DHT22;68680;50.764;6.120;2023-04-19T10:03:35;13.20;61.60
79049;DHT22;68680;50.764;6.120;2023-04-19T10:06:01;13.30;60.70
79049;DHT22;68680;50.764;6.120;2023-04-19T10:08:27;13.30;60.70
79049;DHT22;68680;50.764;6.120;2023-04-19T10:10:55;13.40;59.20
79049;DHT22;68680;50.764;6.120;2023-04-19T10:13:21;13.40;58.00
79049;DHT22;68680;50.764;6.120;2023-04-19T10:15:48;13.30;58.80
79049;DHT22;68680;50.764;6.120;2023-04-19T10:18:13;13.30;58.60
79049;DHT22;68680;50.764;6.120;2023-04-19T10:20:41;13.40;58.20
79049;DHT22;68680;50.764;6.120;2023-04-19T10:23:14;13.40;56.10
79049;DHT22;68680;50.764;6.120;2023-04-19T10:25:40;13.40;56.70
79049;DHT22;68680;50.764;6.120;2023-04-19T10:28:12;13.50;57.40
79049;DHT22;68680;50.764;6.120;2023-04-19T10:30:38;13.50;54.00
79049;DHT22;68680;50.764;6.120;2023-04-19T10:33:22;13.60;53.10
79049;DHT22;68680;50.764;6.120;2023-04-19T10:35:49;13.70;54.30
79049;DHT22;68680;50.764;6.120;2023-04-19T10:38:14;13.70;51.30
79049;DHT22;68680;50.764;6.120;2023-04-19T10:40:53;13.60;50.70
79049;DHT22;68680;50.764;6.120;2023-04-19T10:43:20;13.60;50.60
79049;DHT22;68680;50.764;6.120;2023-04-19T10:45:47;13.60;51.60
79049;DHT22;68680;50.764;6.120;2023-04-19T10:48:35;13.60;49.20
79049;DHT22;68680;50.764;6.120;2023-04-19T10:51:02;13.70;49.70
79049;DHT22;68680;50.764;6.120;2023-04-19T10:53:42;13.80;50.00
79049;DHT22;68680;50.764;6.120;2023-04-19T10:56:18;13.80;51.00
79049;DHT22;68680;50.764;6.120;2023-04-19T11:01:41;13.90;45.90
79049;DHT22;68680;50.764;6.120;2023-04-19T11:04:08;13.90;47.90
79049;DHT22;68680;50.764;6.120;2023-04-19T11:06:35;13.90;46.00
79049;DHT22;68680;50.764;6.120;2023-04-19T11:09:02;13.90;46.20
79049;DHT22;68680;50.764;6.120;2023-04-19T11:11:28;13.90;47.20
79049;DHT22;68680;50.764;6.120;2023-04-19T11:13:58;13.90;46.20
79049;DHT22;68680;50.764;6.120;2023-04-19T11:16:27;13.90;46.30
79049;DHT22;68680;50.764;6.120;2023-04-19T11:18:53;14.00;46.60
79049;DHT22;68680;50.764;6.120;2023-04-19T11:21:19;14.00;45.70
79049;DHT22;68680;50.764;6.120;2023-04-19T11:23:44;13.90;46.00
79049;DHT22;68680;50.764;6.120;2023-04-19T11:26:10;14.10;46.50
79049;DHT22;68680;50.764;6.120;2023-04-19T11:28:36;14.20;44.40
79049;DHT22;68680;50.764;6.120;2023-04-19T11:31:02;14.30;46.30
79049;DHT22;68680;50.764;6.120;2023-04-19T11:33:32;14.40;44.60
79049;DHT22;68680;50.764;6.120;2023-04-19T11:35:58;14.50;44.80
79049;DHT22;68680;50.764;6.120;2023-04-19T11:38:26;14.60;42.90
79049;DHT22;68680;50.764;6.120;2023-04-19T11:40:56;14.50;42.50
79049;DHT22;68680;50.764;6.120;2023-04-19T11:43:23;14.60;43.50
79049;DHT22;68680;50.764;6.120;2023-04-19T11:45:48;14.70;42.40
79049;DHT22;68680;50.764;6.120;2023-04-19T11:48:14;14.90;42.90
79049;DHT22;68680;50.764;6.120;2023-04-19T11:50:41;14.80;42.30
79049;DHT22;68680;50.764;6.120;2023-04-19T11:53:09;14.80;42.50
79049;DHT22;68680;50.764;6.120;2023-04-19T11:55:35;14.90;42.80
79049;DHT22;68680;50.764;6.120;2023-04-19T11:58:01;15.20;43.10
79049;DHT22;68680;50.764;6.120;2023-04-19T12:00:27;15.20;40.80
79049;DHT22;68680;50.764;6.120;2023-04-19T12:02:54;15.40;40.30
79049;DHT22;68680;50.764;6.120;2023-04-19T12:05:20;16.00;39.80
79049;DHT22;68680;50.764;6.120;2023-04-19T12:08:00;16.50;40.50
79049;DHT22;68680;50.764;6.120;2023-04-19T12:10:26;16.70;39.00
79049;DHT22;68680;50.764;6.120;2023-04-19T12:12:52;17.10;38.50
79049;DHT22;68680;50.764;6.120;2023-04-19T12:15:18;17.60;36.40
79049;DHT22;68680;50.764;6.120;2023-04-19T12:17:57;17.90;35.40
79049;DHT22;68680;50.764;6.120;2023-04-19T12:20:27;17.20;35.10
79049;DHT22;68680;50.764;6.120;2023-04-19T12:22:54;17.50;35.60
79049;DHT22;68680;50.764;6.120;2023-04-19T12:25:21;17.70;35.30
79049;DHT22;68680;50.764;6.120;2023-04-19T12:27:47;17.70;34.80
79049;DHT22;68680;50.764;6.120;2023-04-19T12:30:12;18.00;34.80
79049;DHT22;68680;50.764;6.120;2023-04-19T12:32:38;17.60;33.80
79049;DHT22;68680;50.764;6.120;2023-04-19T12:35:04;17.70;35.00
79049;DHT22;68680;50.764;6.120;2023-04-19T12:37:30;18.00;33.50
79049;DHT22;68680;50.764;6.120;2023-04-19T12:39:56;18.30;32.60
79049;DHT22;68680;50.764;6.120;2023-04-19T12:42:23;18.20;32.60
79049;DHT22;68680;50.764;6.120;2023-04-19T12:44:48;18.50;31.10
79049;DHT22;68680;50.764;6.120;2023-04-19T12:47:14;18.60;31.50
79049;DHT22;68680;50.764;6.120;2023-04-19T12:49:39;18.20;30.50
79049;DHT22;68680;50.764;6.120;2023-04-19T12:52:05;18.40;30.30
79049;DHT22;68680;50.764;6.120;2023-04-19T12:54:31;18.10;30.00
79049;DHT22;68680;50.764;6.120;2023-04-19T12:56:56;18.50;32.10
79049;DHT22;68680;50.764;6.120;2023-04-19T12:59:23;18.60;30.30
79049;DHT22;68680;50.764;6.120;2023-04-19T13:01:49;19.00;28.70
79049;DHT22;68680;50.764;6.120;2023-04-19T13:04:15;19.00;30.00
79049;DHT22;68680;50.764;6.120;2023-04-19T13:06:40;19.50;28.00
79049;DHT22;68680;50.764;6.120;2023-04-19T13:09:06;19.50;28.50
79049;DHT22;68680;50.764;6.120;2023-04-19T13:11:32;20.00;28.60
79049;DHT22;68680;50.764;6.120;2023-04-19T13:13:57;20.40;26.80
79049;DHT22;68680;50.764;6.120;2023-04-19T13:16:24;20.50;26.90
79049;DHT22;68680;50.764;6.120;2023-04-19T13:18:50;20.80;27.30
79049;DHT22;68680;50.764;6.120;2023-04-19T13:21:16;21.30;28.10
79049;DHT22;68680;50.764;6.120;2023-04-19T13:23:42;21.10;26.50
79049;DHT22;68680;50.764;6.120;2023-04-19T13:26:11;21.30;26.30
79049;DHT22;68680;50.764;6.120;2023-04-19T13:28:40;20.80;26.90
79049;DHT22;68680;50.764;6.120;2023-04-19T13:31:06;20.60;26.30
79049;DHT22;68680;50.764;6.120;2023-04-19T13:33:33;20.40;25.90
79049;DHT22;68680;50.764;6.120;2023-04-19T13:35:59;20.60;26.70
79049;DHT22;68680;50.764;6.120;2023-04-19T13:38:25;21.10;26.40
79049;DHT22;68680;50.764;6.120;2023-04-19T13:40:50;21.60;26.50
79049;DHT22;68680;50.764;6.120;2023-04-19T13:43:16;21.90;25.00
79049;DHT22;68680;50.764;6.120;2023-04-19T13:45:41;21.80;25.60
79049;DHT22;68680;50.764;6.120;2023-04-19T13:48:07;21.30;26.00
79049;DHT22;68680;50.764;6.120;2023-04-19T13:50:34;21.20;24.70
79049;DHT22;68680;50.764;6.120;2023-04-19T13:53:00;21.10;25.10
79049;DHT22;68680;50.764;6.120;2023-04-19T13:55:25;21.40;26.40
79049;DHT22;68680;50.764;6.120;2023-04-19T13:57:51;21.60;25.30
79049;DHT22;68680;50.764;6.120;2023-04-19T14:00:17;21.50;27.20
79049;DHT22;68680;50.764;6.120;2023-04-19T14:02:44;21.50;26.70
79049;DHT22;68680;50.764;6.120;2023-04-19T14:05:10;21.30;25.30
79049;DHT22;68680;50.764;6.120;2023-04-19T14:07:37;22.00;26.10
79049;DHT22;68680;50.764;6.120;2023-04-19T14:10:03;22.10;26.70
79049;DHT22;68680;50.764;6.120;2023-04-19T14:12:29;22.70;26.00
79049;DHT22;68680;50.764;6.120;2023-04-19T14:14:55;22.60;24.20
79049;DHT22;68680;50.764;6.120;2023-04-19T14:17:20;22.20;25.30
79049;DHT22;68680;50.764;6.120;2023-04-19T14:19:46;21.90;24.80
79049;DHT22;68680;50.764;6.120;2023-04-19T14:22:12;21.70;24.90
79049;DHT22;68680;50.764;6.120;2023-04-19T14:24:39;21.10;26.40
79049;DHT22;68680;50.764;6.120;2023-04-19T14:27:04;19.70;26.40
79049;DHT22;68680;50.764;6.120;2023-04-19T14:29:30;19.10;27.50
79049;DHT22;68680;50.764;6.120;2023-04-19T14:31:55;19.20;29.20
79049;DHT22;68680;50.764;6.120;2023-04-19T14:34:21;18.90;29.10
79049;DHT22;68680;50.764;6.120;2023-04-19T14:36:47;18.40;29.60
79049;DHT22;68680;50.764;6.120;2023-04-19T14:39:12;17.80;28.70
79049;DHT22;68680;50.764;6.120;2023-04-19T14:41:39;17.40;29.30
79049;DHT22;68680;50.764;6.120;2023-04-19T14:44:05;17.20;29.90
79049;DHT22;68680;50.764;6.120;2023-04-19T14:46:31;17.10;30.50
79049;DHT22;68680;50.764;6.120;2023-04-19T14:48:56;17.20;30.60
79049;DHT22;68680;50.764;6.120;2023-04-19T14:51:22;17.00;29.10
79049;DHT22;68680;50.764;6.120;2023-04-19T14:53:48;16.70;29.00
79049;DHT22;68680;50.764;6.120;2023-04-19T14:56:13;16.50;29.40
79049;DHT22;68680;50.764;6.120;2023-04-19T14:58:40;16.10;29.10
79049;DHT22;68680;50.764;6.120;2023-04-19T15:01:09;15.90;29.90
79049;DHT22;68680;50.764;6.120;2023-04-19T15:03:35;16.00;31.30
79049;DHT22;68680;50.764;6.120;2023-04-19T15:06:01;16.00;30.00
79049;DHT22;68680;50.764;6.120;2023-04-19T15:08:26;15.90;31.30
79049;DHT22;68680;50.764;6.120;2023-04-19T15:10:52;16.00;33.70
79049;DHT22;68680;50.764;6.120;2023-04-19T15:13:18;15.90;30.80
79049;DHT22;68680;50.764;6.120;2023-04-19T15:15:45;15.70;32.40
79049;DHT22;68680;50.764;6.120;2023-04-19T15:18:10;15.60;33.10
79049;DHT22;68680;50.764;6.120;2023-04-19T15:20:36;15.60;31.40
79049;DHT22;68680;50.764;6.120;2023-04-19T15:23:02;15.80;31.70
79049;DHT22;68680;50.764;6.120;2023-04-19T15:25:27;15.80;32.30
79049;DHT22;68680;50.764;6.120;2023-04-19T15:27:53;15.60;31.20
79049;DHT22;68680;50.764;6.120;2023-04-19T15:30:19;15.60;33.90
79049;DHT22;68680;50.764;6.120;2023-04-19T15:32:46;15.50;32.30